createdAt,value
2018-10-15T00:04:46.687Z,13.10
2018-10-15T00:09:37.592Z,13.10
2018-10-15T00:14:30.148Z,13.00
2018-10-15T00:19:21.133Z,13.00
2018-10-15T00:24:12.450Z,13.00
2018-10-15T00:29:03.856Z,12.90
2018-10-15T00:33:54.756Z,12.80
2018-10-15T00:38:45.636Z,12.80
2018-10-15T00:43:36.533Z,12.70
2018-10-15T00:48:27.460Z,12.70
2018-10-15T00:53:19.828Z,12.60
2018-10-15T00:58:10.723Z,12.60
2018-10-15T01:03:01.633Z,12.50
2018-10-15T01:07:52.520Z,12.50
2018-10-15T01:12:43.460Z,12.40
2018-10-15T01:17:36.725Z,12.40
2018-10-15T01:22:27.991Z,12.30
2018-10-15T01:27:18.887Z,12.30
2018-10-15T01:32:11.274Z,12.30
2018-10-15T01:37:02.193Z,12.20
2018-10-15T01:41:53.836Z,12.10
2018-10-15T01:46:44.732Z,12.10
2018-10-15T01:51:36.212Z,12.10
2018-10-15T01:56:27.120Z,12.10
2018-10-15T02:01:18.030Z,12.00
2018-10-15T02:06:09.695Z,12.00
2018-10-15T02:11:00.735Z,12.00
2018-10-15T02:15:51.641Z,12.10
2018-10-15T02:20:43.160Z,12.00
2018-10-15T02:25:34.809Z,12.00
2018-10-15T02:30:25.708Z,12.00
2018-10-15T02:35:16.609Z,12.00
2018-10-15T02:40:08.255Z,12.00
2018-10-15T02:44:59.149Z,12.00
2018-10-15T02:49:50.229Z,12.00
2018-10-15T02:54:42.298Z,11.90
2018-10-15T02:59:33.948Z,11.90
2018-10-15T03:04:24.861Z,11.80
2018-10-15T03:09:15.751Z,11.80
2018-10-15T03:14:07.402Z,11.80
2018-10-15T03:18:58.287Z,11.70
2018-10-15T03:23:49.174Z,11.70
2018-10-15T03:28:41.372Z,11.60
2018-10-15T03:33:33.759Z,11.60
2018-10-15T03:38:24.668Z,11.60
2018-10-15T03:43:16.300Z,11.60
2018-10-15T03:48:07.240Z,11.60
2018-10-15T03:52:58.926Z,11.60
2018-10-15T03:57:49.828Z,11.60
2018-10-15T04:02:42.194Z,11.60
2018-10-15T04:07:33.112Z,11.60
2018-10-15T04:12:25.732Z,11.60
2018-10-15T04:17:16.637Z,11.50
2018-10-15T04:22:07.609Z,11.60
2018-10-15T04:27:00.036Z,11.50
2018-10-15T04:31:50.989Z,11.60
2018-10-15T04:36:41.892Z,11.50
2018-10-15T04:41:32.868Z,11.60
2018-10-15T04:46:24.462Z,11.60
2018-10-15T04:51:15.369Z,11.50
2018-10-15T04:56:06.268Z,11.50
2018-10-15T05:00:57.168Z,11.50
2018-10-15T05:05:48.076Z,11.50
2018-10-15T05:10:39.731Z,11.40
2018-10-15T05:15:30.645Z,11.40
2018-10-15T05:20:21.895Z,11.40
2018-10-15T05:25:13.531Z,11.30
2018-10-15T05:30:05.200Z,11.20
2018-10-15T05:34:56.947Z,11.10
2018-10-15T05:39:47.840Z,11.10
2018-10-15T05:44:39.507Z,11.00
2018-10-15T05:49:31.198Z,11.00
2018-10-15T05:54:23.281Z,10.90
2018-10-15T05:59:14.149Z,10.80
2018-10-15T06:04:05.050Z,10.80
2018-10-15T06:08:55.948Z,10.80
2018-10-15T06:13:46.866Z,10.70
2018-10-15T06:18:38.503Z,10.60
2018-10-15T06:23:30.066Z,10.60
2018-10-15T06:28:21.017Z,10.60
2018-10-15T06:33:12.045Z,10.50
2018-10-15T06:38:03.587Z,10.50
2018-10-15T06:42:55.213Z,10.50
2018-10-15T06:47:46.114Z,10.50
2018-10-15T06:52:37.624Z,10.50
2018-10-15T06:57:28.897Z,10.60
2018-10-15T07:02:19.875Z,10.60
2018-10-15T07:07:10.770Z,10.70
2018-10-15T07:12:03.158Z,10.80
2018-10-15T07:16:54.059Z,10.90
2018-10-15T07:21:44.965Z,11.00
2018-10-15T07:26:37.882Z,11.10
2018-10-15T07:31:29.554Z,11.30
2018-10-15T07:36:20.467Z,11.20
2018-10-15T07:41:12.490Z,11.50
2018-10-15T07:46:03.427Z,11.50
2018-10-15T07:50:55.066Z,11.80
2018-10-15T07:55:45.971Z,11.80
2018-10-15T08:00:39.095Z,12.10
2018-10-15T08:05:30.841Z,12.20
2018-10-15T08:10:21.815Z,12.20
2018-10-15T08:15:12.751Z,12.30
2018-10-15T08:20:03.620Z,12.60
2018-10-15T08:24:54.504Z,12.70
2018-10-15T08:29:45.435Z,12.90
2018-10-15T08:39:35.732Z,13.40
2018-10-15T08:44:27.669Z,13.60
2018-10-15T08:49:19.359Z,13.80
2018-10-15T08:54:10.360Z,13.70
2018-10-15T08:59:02.809Z,13.90
2018-10-15T09:03:53.732Z,14.10
2018-10-15T09:08:44.765Z,14.30
2018-10-15T09:13:35.784Z,14.40
2018-10-15T09:18:26.984Z,14.60
2018-10-15T09:23:17.905Z,14.70
2018-10-15T09:28:08.795Z,14.90
2018-10-15T09:32:59.735Z,15.10
2018-10-15T09:37:51.420Z,15.40
2018-10-15T09:42:42.343Z,15.40
2018-10-15T09:47:33.927Z,15.70
2018-10-15T09:52:24.808Z,15.70
2018-10-15T09:57:15.718Z,15.80
2018-10-15T10:02:06.701Z,16.00
2018-10-15T10:06:57.588Z,16.10
2018-10-15T10:11:48.504Z,16.20
2018-10-15T10:16:39.437Z,16.30
2018-10-15T10:21:30.516Z,16.50
2018-10-15T10:26:21.420Z,16.70
2018-10-15T10:31:12.360Z,16.90
2018-10-15T10:36:03.311Z,17.20
2018-10-15T10:40:54.231Z,17.40
2018-10-15T10:45:45.210Z,17.70
2018-10-15T10:50:36.053Z,17.90
2018-10-15T10:55:26.943Z,18.20
2018-10-15T11:00:18.591Z,18.60
2018-10-15T11:05:09.672Z,18.60
2018-10-15T11:10:00.600Z,18.80
2018-10-15T11:14:51.508Z,19.20
2018-10-15T11:19:43.082Z,19.70
2018-10-15T11:24:33.999Z,20.10
2018-10-15T11:29:24.910Z,20.50
2018-10-15T11:34:16.661Z,21.50
2018-10-15T11:39:07.478Z,21.50
2018-10-15T11:43:59.290Z,22.70
2018-10-15T11:48:50.910Z,23.00
2018-10-15T11:53:42.754Z,23.00
2018-10-15T11:58:33.648Z,23.30
2018-10-15T12:03:25.870Z,23.40
2018-10-15T12:08:17.508Z,23.40
2018-10-15T12:13:09.145Z,23.40
2018-10-15T12:18:00.287Z,23.40
2018-10-15T12:22:51.215Z,23.70
2018-10-15T12:27:42.148Z,24.00
2018-10-15T12:32:33.241Z,24.10
2018-10-15T12:37:24.144Z,24.30
2018-10-15T12:42:15.776Z,24.10
2018-10-15T12:47:06.816Z,24.10
2018-10-15T12:51:58.456Z,23.90
2018-10-15T12:56:49.401Z,23.90
2018-10-15T13:01:41.710Z,23.80
2018-10-15T13:06:32.615Z,23.80
2018-10-15T13:11:23.517Z,23.80
2018-10-15T13:16:14.400Z,23.90
2018-10-15T13:21:06.048Z,23.90
2018-10-15T13:25:56.946Z,23.90
2018-10-15T13:30:47.945Z,23.90
2018-10-15T13:35:38.828Z,24.00
2018-10-15T13:40:29.760Z,23.90
2018-10-15T13:45:20.714Z,23.80
2018-10-15T13:50:11.659Z,23.70
2018-10-15T13:55:02.554Z,23.60
2018-10-15T13:59:54.941Z,23.20
2018-10-15T14:04:45.833Z,23.20
2018-10-15T14:09:36.776Z,23.00
2018-10-15T14:14:27.697Z,22.90
2018-10-15T14:19:18.597Z,22.70
2018-10-15T14:24:09.487Z,22.50
2018-10-15T14:29:00.413Z,22.40
2018-10-15T14:33:51.324Z,22.20
2018-10-15T14:38:42.215Z,22.10
2018-10-15T14:43:33.126Z,21.90
2018-10-15T14:48:24.780Z,21.60
2018-10-15T14:53:16.432Z,21.40
2018-10-15T14:58:07.452Z,21.40
2018-10-15T15:02:58.320Z,21.30
2018-10-15T15:07:49.281Z,21.10
2018-10-15T15:12:47.435Z,21.00
2018-10-15T15:17:38.351Z,20.90
2018-10-15T15:22:29.265Z,20.80
2018-10-15T15:27:20.151Z,20.80
2018-10-15T15:32:11.077Z,20.70
2018-10-15T15:37:01.988Z,20.60
2018-10-15T15:41:52.889Z,20.50
2018-10-15T15:46:43.798Z,20.40
2018-10-15T15:51:35.433Z,20.10
2018-10-15T15:56:26.306Z,20.10
2018-10-15T16:01:17.210Z,20.00
2018-10-15T16:06:08.096Z,19.80
2018-10-15T16:10:59.908Z,19.50
2018-10-15T16:15:50.737Z,19.50
2018-10-15T16:20:41.621Z,19.30
2018-10-15T16:25:33.267Z,19.00
2018-10-15T16:30:24.157Z,19.00
2018-10-15T16:35:15.080Z,18.90
2018-10-15T16:40:06.724Z,18.60
2018-10-15T16:44:57.648Z,18.60
2018-10-15T16:49:48.542Z,18.50
2018-10-15T16:54:40.175Z,18.20
2018-10-15T16:59:32.081Z,18.20
2018-10-15T17:04:23.271Z,18.10
2018-10-15T17:09:14.185Z,17.90
2018-10-15T17:14:05.836Z,17.60
2018-10-15T17:18:57.302Z,17.60
2018-10-15T17:23:48.312Z,17.50
2018-10-15T17:28:39.943Z,17.20
2018-10-15T17:33:30.854Z,17.20
2018-10-15T17:38:22.949Z,17.10
2018-10-15T17:43:14.037Z,17.00
2018-10-15T17:48:04.928Z,16.80
2018-10-15T17:52:55.936Z,16.70
2018-10-15T17:57:46.809Z,16.60
2018-10-15T18:02:37.762Z,16.50
2018-10-15T18:07:28.697Z,16.30
2018-10-15T18:12:20.400Z,16.00
2018-10-15T18:17:11.308Z,16.00
2018-10-15T18:22:02.333Z,15.90
2018-10-15T18:26:53.249Z,15.70
2018-10-15T18:31:44.150Z,15.70
2018-10-15T18:36:35.825Z,15.40
2018-10-15T18:41:27.483Z,15.30
2018-10-15T18:46:18.506Z,15.20
2018-10-15T18:51:09.467Z,15.10
2018-10-15T18:56:00.442Z,15.10
2018-10-15T19:00:51.399Z,15.00
2018-10-15T19:05:42.273Z,14.80
2018-10-15T19:10:33.254Z,14.70
2018-10-15T19:15:24.264Z,14.60
2018-10-15T19:20:15.180Z,14.50
2018-10-15T19:25:06.172Z,14.40
2018-10-15T19:29:57.142Z,14.30
2018-10-15T19:34:48.094Z,14.10
2018-10-15T19:39:39.061Z,14.00
2018-10-15T19:44:30.038Z,13.90
2018-10-15T19:49:21.006Z,13.80
2018-10-15T19:54:11.957Z,13.70
2018-10-15T19:59:02.912Z,13.60
2018-10-15T20:03:54.693Z,13.40
2018-10-15T20:08:45.614Z,13.30
2018-10-15T20:13:36.611Z,13.30
2018-10-15T20:18:27.523Z,13.20
2018-10-15T20:23:18.485Z,13.10
2018-10-15T20:28:09.412Z,13.00
2018-10-15T20:33:01.868Z,12.80
2018-10-15T20:37:52.790Z,12.80
2018-10-15T20:42:43.742Z,12.80
2018-10-15T20:47:34.633Z,12.70
2018-10-15T20:52:26.320Z,12.50
2018-10-15T20:57:18.002Z,12.40
2018-10-15T21:02:09.681Z,12.40
2018-10-15T21:07:01.048Z,12.40
2018-10-15T21:11:52.014Z,12.30
2018-10-15T21:16:43.091Z,12.20
2018-10-15T21:21:34.137Z,12.10
2018-10-15T21:26:25.239Z,12.10
2018-10-15T21:31:16.290Z,12.00
2018-10-15T21:36:09.061Z,12.00
2018-10-15T21:41:00.005Z,11.90
2018-10-15T21:45:51.131Z,11.80
2018-10-15T21:50:42.318Z,11.70
2018-10-15T21:55:33.240Z,11.70
2018-10-15T22:00:25.330Z,11.50
2018-10-15T22:05:17.033Z,11.50
2018-10-15T22:10:10.621Z,11.40
2018-10-15T22:15:01.560Z,11.40
2018-10-15T22:19:52.511Z,11.40
2018-10-15T22:24:43.548Z,11.20
2018-10-15T22:29:35.264Z,11.10
2018-10-15T22:34:26.189Z,11.10
2018-10-15T22:39:17.212Z,11.10
2018-10-15T22:44:08.181Z,11.00
2018-10-15T22:48:59.137Z,10.90
2018-10-15T22:53:50.068Z,10.90
2018-10-15T22:58:41.735Z,10.80
2018-10-15T23:03:32.789Z,10.70
2018-10-15T23:08:23.729Z,10.70
2018-10-15T23:13:14.682Z,10.60
2018-10-15T23:18:05.609Z,10.60
2018-10-15T23:22:56.546Z,10.50
2018-10-15T23:27:47.450Z,10.50
2018-10-15T23:32:38.402Z,10.50
2018-10-15T23:37:29.349Z,10.40
2018-10-15T23:42:20.268Z,10.30
2018-10-15T23:47:11.952Z,10.20
2018-10-15T23:52:03.644Z,10.20
2018-10-15T23:56:56.852Z,10.10
